Time;durP1;ratioP1;P1;durP2;ratioP2;P2;SDS_P1;SDS_P2;PMS_P1;PMS_P2;Temp;Humidity;BMP_temperature;BMP_pressure;BME280_temperature;BME280_humidity;BME280_pressure;Samples;Min_cycle;Max_cycle;Signal;HPM_P1;HPM_P2
2022/08/03 00:00:29;;;;;;;7.20;4.40;;;;;;;16.09;88.01;100970.28;109166;1230;72734;-72
2022/08/03 00:03:03;;;;;;;7.10;4.00;;;;;;;16.06;88.33;100970.40;108956;1229;63525;-71
2022/08/03 00:05:32;;;;;;;10.10;4.60;;;;;;;16.01;88.27;100967.73;109246;1228;60222;-70
2022/08/03 00:08:00;;;;;;;7.10;4.90;;;;;;;15.95;88.17;100964.41;109308;1228;74970;-72
2022/08/03 00:10:29;;;;;;;6.80;4.10;;;;;;;15.90;87.88;100965.35;109306;1228;71595;-72
2022/08/03 00:12:56;;;;;;;5.80;4.30;;;;;;;15.84;88.08;100963.77;109127;1228;60618;-72
2022/08/03 00:15:24;;;;;;;6.10;4.30;;;;;;;15.82;88.38;100959.28;109423;1228;73604;-72
2022/08/03 00:17:52;;;;;;;3.90;3.50;;;;;;;15.80;88.79;100959.27;109531;1228;60964;-73
2022/08/03 00:20:21;;;;;;;8.10;4.00;;;;;;;15.74;88.36;100959.41;108992;1229;60482;-73
2022/08/03 00:22:50;;;;;;;4.50;3.70;;;;;;;15.68;88.24;100958.45;109290;1228;74393;-69
2022/08/03 00:25:18;;;;;;;6.90;3.90;;;;;;;15.62;89.04;100958.02;109539;1228;72158;-73
2022/08/03 00:27:45;;;;;;;6.20;4.00;;;;;;;15.62;89.10;100963.53;109689;1228;70508;-74
2022/08/03 00:30:17;;;;;;;5.90;4.00;;;;;;;15.65;88.83;100963.96;109273;1228;74185;-72
2022/08/03 00:32:44;;;;;;;7.40;3.90;;;;;;;15.67;88.73;100964.89;109399;1227;61706;-73
2022/08/03 00:35:12;;;;;;;6.90;4.10;;;;;;;15.66;88.41;100971.95;109296;1228;60100;-74
2022/08/03 00:37:59;;;;;;;6.40;4.40;;;;;;;15.65;88.07;100974.52;109122;1228;74453;-73
2022/08/03 00:40:27;;;;;;;9.70;4.70;;;;;;;15.64;87.89;100972.12;109165;1230;71132;-73
2022/08/03 00:42:58;;;;;;;6.80;4.60;;;;;;;15.67;87.73;100972.45;109336;1228;68512;-72
2022/08/03 00:45:30;;;;;;;6.20;5.10;;;;;;;15.68;87.79;100974.27;109432;1228;72186;-72
2022/08/03 00:47:59;;;;;;;5.50;4.20;;;;;;;15.67;88.01;100979.73;109217;1229;61698;-72
2022/08/03 00:50:29;;;;;;;7.10;4.20;;;;;;;15.67;88.52;100978.75;109306;1229;59557;-73
2022/08/03 00:52:59;;;;;;;5.50;4.20;;;;;;;15.69;88.86;100976.63;109218;1228;73489;-71
2022/08/03 00:55:26;;;;;;;6.00;4.60;;;;;;;15.69;88.66;100972.78;109426;1228;70784;-70
2022/08/03 00:57:55;;;;;;;6.60;4.80;;;;;;;15.68;88.74;100975.46;109235;1229;69822;-72
2022/08/03 01:00:25;;;;;;;8.10;4.60;;;;;;;15.66;87.52;100975.81;109212;1231;72431;-72
2022/08/03 01:02:53;;;;;;;6.30;5.00;;;;;;;15.64;87.73;100975.79;109288;1228;62208;-73
2022/08/03 01:05:21;;;;;;;7.20;5.00;;;;;;;15.63;88.54;100974.16;109190;1228;60787;-72
2022/08/03 01:08:11;;;;;;;7.60;4.90;;;;;;;15.63;88.80;100972.86;109027;1228;74187;-72
2022/08/03 01:11:09;;;;;;;5.90;4.50;;;;;;;15.63;89.10;100972.71;109205;1228;71107;-71
2022/08/03 01:13:47;;;;;;;7.00;4.70;;;;;;;15.62;88.90;100973.35;109285;1228;69618;-72
2022/08/03 01:17:09;;;;;;;5.30;4.60;;;;;;;15.60;88.69;100974.55;109335;1228;74304;-70
2022/08/03 01:20:12;;;;;;;7.20;4.90;;;;;;;15.55;88.68;100975.20;109303;1228;63338;-72
2022/08/03 01:23:26;;;;;;;8.30;4.80;;;;;;;15.56;88.33;100976.65;109247;1231;60886;-70
2022/08/03 01:26:27;;;;;;;8.40;5.10;;;;;;;15.54;88.24;100975.23;109342;1230;75236;-71
2022/08/03 01:29:28;;;;;;;8.00;4.70;;;;;;;15.53;88.30;100979.41;109021;1231;71583;-73
2022/08/03 01:32:11;;;;;;;5.40;4.70;;;;;;;15.51;88.10;100981.10;109217;1228;70595;-72
2022/08/03 01:35:11;;;;;;;7.40;4.70;;;;;;;15.49;88.04;100976.46;109282;1228;72805;-72
2022/08/03 01:37:50;;;;;;;8.10;5.10;;;;;;;15.47;87.90;100972.88;109319;1228;61741;-72
2022/08/03 01:40:21;;;;;;;8.50;4.50;;;;;;;15.46;87.78;100974.73;109464;1228;61765;-73
2022/08/03 01:42:50;;;;;;;6.20;4.70;;;;;;;15.43;87.84;100970.48;109663;1228;73171;-74
2022/08/03 01:45:21;;;;;;;8.60;5.10;;;;;;;15.39;88.33;100974.68;109382;1228;71514;-71
2022/08/03 01:47:50;;;;;;;6.40;4.50;;;;;;;15.34;88.13;100974.38;109615;1228;68329;-74
2022/08/03 01:50:23;;;;;;;6.60;4.60;;;;;;;15.29;87.42;100976.61;109328;1230;71144;-73
2022/08/03 01:52:53;;;;;;;5.60;4.80;;;;;;;15.17;88.11;100966.27;109298;1231;62952;-72
2022/08/03 01:55:22;;;;;;;6.40;5.00;;;;;;;15.25;88.44;100977.36;109522;1228;61909;-72
2022/08/03 01:57:51;;;;;;;5.10;4.00;;;;;;;15.26;88.28;100982.84;109299;1228;75370;-72
2022/08/03 02:00:39;;;;;;;6.30;4.50;;;;;;;15.30;87.86;100980.72;109315;1229;71422;-71
2022/08/03 02:03:09;;;;;;;6.10;3.90;;;;;;;15.32;87.53;100981.95;109287;1228;70615;-72
2022/08/03 02:05:39;;;;;;;9.40;4.80;;;;;;;15.34;87.46;100984.52;109455;1228;74472;-70
2022/08/03 02:08:12;;;;;;;6.80;3.80;;;;;;;15.36;87.23;100982.64;109425;1228;61715;-71
2022/08/03 02:10:42;;;;;;;6.20;4.30;;;;;;;15.41;87.16;100978.95;109438;1228;60578;-70
2022/08/03 02:13:10;;;;;;;8.70;5.00;;;;;;;15.40;87.03;100981.63;109423;1228;73037;-70
2022/08/03 02:15:40;;;;;;;6.20;4.30;;;;;;;15.41;87.04;100975.73;109257;1229;73178;-71
2022/08/03 02:18:10;;;;;;;6.50;4.40;;;;;;;15.43;86.79;100975.74;109456;1229;71282;-71
2022/08/03 02:20:39;;;;;;;6.10;4.60;;;;;;;15.42;86.95;100971.77;109436;1229;72575;-71
2022/08/03 02:23:07;;;;;;;7.30;4.60;;;;;;;15.40;87.02;100969.89;109446;1229;61140;-70
2022/08/03 02:25:43;;;;;;;6.50;4.90;;;;;;;15.34;87.21;100969.54;109277;1229;61223;-74
2022/08/03 02:28:18;;;;;;;7.40;4.70;;;;;;;15.27;86.78;100965.54;109773;1228;73056;-72
2022/08/03 02:30:56;;;;;;;6.30;4.90;;;;;;;15.22;87.21;100964.96;109529;1228;71157;-71
2022/08/03 02:33:37;;;;;;;7.80;4.80;;;;;;;15.13;87.72;100966.77;109258;1230;68626;-71
2022/08/03 02:36:07;;;;;;;10.20;4.70;;;;;;;15.07;87.41;100966.23;109414;1228;74225;-71
2022/08/03 02:38:40;;;;;;;5.90;4.20;;;;;;;15.01;87.14;100969.19;109486;1226;61306;-73
2022/08/03 02:41:15;;;;;;;8.80;5.10;;;;;;;14.97;87.09;100974.48;109436;1228;59599;-72
2022/08/03 02:43:48;;;;;;;6.80;5.00;;;;;;;14.92;87.78;100979.35;109507;1228;71668;-73
2022/08/03 02:46:40;;;;;;;6.80;4.90;;;;;;;14.96;87.97;100981.46;109458;1228;72640;-71
2022/08/03 02:49:10;;;;;;;12.60;5.40;;;;;;;15.00;88.07;100983.56;109430;1228;69342;-72
2022/08/03 02:51:59;;;;;;;6.10;3.80;;;;;;;15.10;87.91;100986.37;109296;1228;72744;-71
2022/08/03 02:54:28;;;;;;;5.40;4.40;;;;;;;15.18;87.38;100980.05;109290;1228;62097;-72
2022/08/03 02:56:57;;;;;;;5.20;4.30;;;;;;;15.22;87.12;100980.90;109308;1229;60230;-71
2022/08/03 02:59:30;;;;;;;9.80;5.70;;;;;;;15.28;86.88;100980.92;109259;1229;72443;-71
2022/08/03 03:02:00;;;;;;;7.00;4.90;;;;;;;15.33;86.66;100981.36;109194;1231;70322;-73
2022/08/03 03:04:30;;;;;;;8.00;4.80;;;;;;;15.38;86.39;100986.16;109363;1228;67115;-74
2022/08/03 03:07:01;;;;;;;6.20;4.20;;;;;;;15.41;86.13;100981.88;109360;1228;73070;-73
2022/08/03 03:09:33;;;;;;;8.60;6.20;;;;;;;15.42;86.17;100980.91;109125;1231;61629;-72
2022/08/03 03:12:13;;;;;;;9.30;4.80;;;;;;;15.40;86.15;100984.80;109266;1228;60381;-73
2022/08/03 03:14:41;;;;;;;11.50;4.80;;;;;;;15.42;86.08;100983.89;109305;1228;72875;-71
2022/08/03 03:17:11;;;;;;;7.20;4.60;;;;;;;15.42;86.08;100990.55;109276;1228;70657;-71
2022/08/03 03:19:40;;;;;;;9.60;4.80;;;;;;;15.44;86.03;100992.29;109251;1228;70311;-72
2022/08/03 03:22:09;;;;;;;6.60;4.80;;;;;;;15.51;85.63;100996.29;109213;1228;73940;-72
2022/08/03 03:24:37;;;;;;;6.80;4.90;;;;;;;15.54;85.47;100992.81;109135;1229;61669;-72
2022/08/03 03:27:04;;;;;;;5.40;4.80;;;;;;;15.57;85.32;100990.09;109301;1228;59582;-73
2022/08/03 03:29:33;;;;;;;6.70;5.00;;;;;;;15.62;85.20;100998.23;109105;1230;72670;-73
2022/08/03 03:32:06;;;;;;;9.80;5.40;;;;;;;15.69;84.77;101000.64;109096;1228;71070;-73
2022/08/03 03:34:36;;;;;;;9.80;5.60;;;;;;;15.72;84.78;101000.73;109272;1228;70516;-72
2022/08/03 03:37:04;;;;;;;6.20;4.90;;;;;;;15.79;84.47;101000.84;109210;1228;71494;-72
2022/08/03 03:39:32;;;;;;;7.10;5.20;;;;;;;15.90;84.15;101004.04;109401;1228;60469;-69
2022/08/03 03:42:00;;;;;;;10.50;5.50;;;;;;;15.97;83.86;101000.23;109561;1228;61680;-72
2022/08/03 03:44:29;;;;;;;10.20;5.00;;;;;;;16.06;83.66;101001.33;109323;1231;72917;-73
2022/08/03 03:47:00;;;;;;;7.10;4.70;;;;;;;16.12;83.33;101003.80;109532;1228;70401;-73
2022/08/03 03:49:27;;;;;;;11.00;5.50;;;;;;;16.17;83.03;101003.38;109299;1228;68972;-72
2022/08/03 03:51:55;;;;;;;7.70;4.70;;;;;;;16.23;82.57;101007.52;109341;1228;73043;-73
2022/08/03 03:54:23;;;;;;;8.80;4.30;;;;;;;16.31;82.33;101009.41;109302;1228;61709;-72
2022/08/03 03:56:55;;;;;;;7.70;4.50;;;;;;;16.39;82.41;101013.23;109308;1228;60398;-73
2022/08/03 03:59:23;;;;;;;6.40;4.60;;;;;;;16.47;82.03;101013.94;109400;1228;72465;-72
2022/08/03 04:01:51;;;;;;;7.30;4.90;;;;;;;16.58;81.12;101014.65;109258;1228;72672;-72
2022/08/03 04:11:01;;;;;;;7.80;3.60;;;;;;;16.94;79.41;101012.23;108636;1235;60996;-73
2022/08/03 04:13:46;;;;;;;5.50;3.90;;;;;;;17.05;78.62;101013.66;109084;1228;61134;-72
2022/08/03 04:16:17;;;;;;;7.20;3.60;;;;;;;17.14;78.56;101017.65;109526;1227;65380;-73
2022/08/03 04:18:51;;;;;;;7.00;3.60;;;;;;;17.27;77.69;101020.70;109332;1229;61480;-74
2022/08/03 04:21:22;;;;;;;4.50;3.60;;;;;;;17.37;77.09;101021.64;109550;1228;70593;-73
2022/08/03 04:23:56;;;;;;;7.70;3.80;;;;;;;17.46;76.04;101019.16;109533;1228;63763;-73
2022/08/03 04:26:28;;;;;;;5.50;3.60;;;;;;;17.54;75.89;101023.69;109368;1228;62144;-74
2022/08/03 04:28:57;;;;;;;6.30;3.50;;;;;;;17.61;75.27;101021.98;109600;1231;59003;-74
2022/08/03 04:31:26;;;;;;;5.90;4.10;;;;;;;17.69;75.16;101020.65;109517;1228;64095;-74
2022/08/03 04:33:54;;;;;;;5.50;3.60;;;;;;;17.77;75.07;101019.27;109441;1229;73244;-73
2022/08/03 04:36:26;;;;;;;5.50;3.70;;;;;;;17.86;74.70;101019.61;109446;1228;69091;-73
2022/08/03 04:39:07;;;;;;;6.30;3.60;;;;;;;17.93;73.97;101015.99;109415;1228;73778;-71
2022/08/03 04:41:35;;;;;;;6.40;4.00;;;;;;;18.05;74.06;101020.35;109477;1228;59420;-73
2022/08/03 04:44:25;;;;;;;5.50;3.30;;;;;;;18.23;73.29;101019.23;109418;1228;60356;-71
2022/08/03 04:46:56;;;;;;;5.10;3.70;;;;;;;18.34;72.66;101018.48;109290;1228;63353;-70
2022/08/03 04:49:25;;;;;;;7.00;3.50;;;;;;;18.42;72.23;101020.83;109563;1228;61483;-73
2022/08/03 04:51:53;;;;;;;6.60;4.10;;;;;;;18.51;71.64;101021.28;109296;1229;70472;-72
2022/08/03 04:54:20;;;;;;;8.30;3.60;;;;;;;18.56;71.72;101023.36;109215;1231;63571;-73
2022/08/03 04:56:48;;;;;;;5.10;3.60;;;;;;;18.66;71.50;101020.08;109417;1228;58216;-72
2022/08/03 04:59:16;;;;;;;5.00;3.60;;;;;;;18.79;71.19;101022.77;109275;1228;61302;-72
2022/08/03 05:01:44;;;;;;;6.70;3.10;;;;;;;18.90;70.90;101024.54;109725;1228;74593;-80
2022/08/03 05:04:45;;;;;;;6.50;3.50;;;;;;;18.98;70.48;101026.48;111673;1227;61895;31
2022/08/03 05:07:14;;;;;;;5.10;3.20;;;;;;;19.13;69.78;101031.41;109263;1230;451241;-77
2022/08/03 05:09:42;;;;;;;5.30;3.20;;;;;;;19.22;69.33;101027.50;109637;1230;63294;-76
2022/08/03 05:12:19;;;;;;;5.20;3.20;;;;;;;19.19;69.02;101027.52;109530;1229;58811;-78
2022/08/03 05:14:46;;;;;;;5.70;3.20;;;;;;;19.14;69.22;101033.48;110109;1228;61098;-78
2022/08/03 05:17:14;;;;;;;4.00;2.80;;;;;;;19.17;69.50;101033.52;110549;1227;74069;-77
2022/08/03 05:19:41;;;;;;;4.00;3.00;;;;;;;19.17;69.63;101033.34;110241;1228;61951;-76
2022/08/03 05:22:08;;;;;;;4.40;3.10;;;;;;;19.26;69.47;101035.33;110122;1230;69737;-77
2022/08/03 05:24:36;;;;;;;3.80;3.20;;;;;;;19.32;69.25;101036.74;110892;1230;73840;-79
2022/08/03 05:27:03;;;;;;;7.60;3.30;;;;;;;19.33;69.17;101041.02;111383;1228;57819;-73
2022/08/03 05:29:30;;;;;;;6.00;3.30;;;;;;;19.40;69.10;101035.67;109585;1228;61258;-76
2022/08/03 05:31:58;;;;;;;5.10;3.40;;;;;;;19.60;68.56;101029.00;109290;1230;75368;-75
2022/08/03 05:34:25;;;;;;;5.60;3.50;;;;;;;19.77;68.33;101033.22;109565;1227;61346;-75
2022/08/03 05:36:53;;;;;;;5.70;3.40;;;;;;;19.94;68.17;101033.59;109637;1228;61766;-75
2022/08/03 05:39:20;;;;;;;7.40;3.10;;;;;;;20.03;67.65;101031.38;109324;1230;63307;-75
2022/08/03 05:41:47;;;;;;;7.00;3.40;;;;;;;20.12;67.53;101035.61;109467;1230;59630;-73
2022/08/03 05:44:15;;;;;;;4.50;3.00;;;;;;;20.20;66.93;101039.93;109627;1230;60502;-71
2022/08/03 05:46:42;;;;;;;5.10;3.10;;;;;;;20.17;66.58;101037.25;109287;1230;63383;-75
2022/08/03 05:49:10;;;;;;;5.20;3.40;;;;;;;20.11;66.67;101032.77;109506;1230;73027;-71
2022/08/03 05:51:37;;;;;;;4.50;3.20;;;;;;;20.17;66.82;101035.73;109221;1229;59112;-72
2022/08/03 05:54:04;;;;;;;3.30;3.00;;;;;;;20.23;66.93;101032.34;109245;1230;73718;-73
2022/08/03 05:56:32;;;;;;;4.50;2.90;;;;;;;20.27;66.82;101034.52;109188;1230;61885;-73
2022/08/03 05:58:59;;;;;;;6.20;3.20;;;;;;;20.34;66.79;101033.42;109287;1230;59479;-74
2022/08/03 06:01:47;;;;;;;6.20;3.30;;;;;;;20.41;66.67;101031.46;109412;1230;74807;-71
2022/08/03 06:04:15;;;;;;;5.00;3.20;;;;;;;20.48;66.41;101037.49;109182;1230;73798;-72
2022/08/03 06:06:42;;;;;;;5.90;3.10;;;;;;;20.45;66.88;101038.48;109362;1230;59582;-74
2022/08/03 06:09:09;;;;;;;5.20;3.40;;;;;;;20.60;66.78;101037.58;109186;1230;73924;-72
2022/08/03 06:11:39;;;;;;;4.20;2.90;;;;;;;20.68;66.61;101040.02;109224;1229;58238;-73
2022/08/03 06:14:06;;;;;;;5.00;3.30;;;;;;;20.77;66.35;101040.31;109339;1230;59661;-73
2022/08/03 06:16:34;;;;;;;6.20;2.80;;;;;;;20.93;66.34;101041.73;109244;1230;73750;-73
2022/08/03 06:19:01;;;;;;;7.10;4.00;;;;;;;21.05;65.83;101045.31;109154;1230;72985;-73
2022/08/03 06:21:29;;;;;;;4.70;3.30;;;;;;;20.96;65.81;101042.02;110119;1231;61451;-77
2022/08/03 06:23:57;;;;;;;5.00;3.80;;;;;;;20.93;66.00;101044.29;110424;1230;63604;-78
2022/08/03 06:26:28;;;;;;;5.70;3.50;;;;;;;21.02;65.99;101037.31;110651;1230;60924;-77
2022/08/03 06:28:55;;;;;;;4.10;3.40;;;;;;;21.14;65.73;101038.08;109563;1230;59586;-73
2022/08/03 06:31:28;;;;;;;4.10;3.30;;;;;;;21.20;65.59;101037.79;109073;1230;74507;-72
2022/08/03 06:34:04;;;;;;;4.30;3.40;;;;;;;21.34;64.86;101035.30;109344;1230;62010;-73
2022/08/03 06:36:53;;;;;;;4.50;3.60;;;;;;;21.38;64.46;101039.40;108903;1230;70610;-73
2022/08/03 06:39:28;;;;;;;7.60;3.20;;;;;;;21.48;64.61;101036.60;109229;1230;74274;-72
2022/08/03 06:41:55;;;;;;;5.50;3.10;;;;;;;21.62;64.14;101032.53;109025;1231;58819;-72
2022/08/03 06:44:22;;;;;;;3.90;3.10;;;;;;;21.69;63.77;101038.36;109298;1230;60288;-72
2022/08/03 06:46:50;;;;;;;4.50;2.80;;;;;;;21.75;63.60;101031.55;109406;1230;63485;-73
2022/08/03 06:49:17;;;;;;;3.60;3.10;;;;;;;21.84;63.77;101031.73;109331;1230;71511;-74
2022/08/03 06:51:46;;;;;;;4.80;3.30;;;;;;;21.86;63.41;101037.23;109271;1230;60572;-73
2022/08/03 06:54:31;;;;;;;5.60;3.20;;;;;;;21.77;63.31;101039.15;109232;1230;63708;-71
2022/08/03 06:57:00;;;;;;;5.80;2.60;;;;;;;21.81;63.25;101035.27;109915;1228;59560;-74
2022/08/03 06:59:28;;;;;;;5.00;3.20;;;;;;;21.86;63.01;101040.35;110217;1230;57956;-78
2022/08/03 07:02:15;;;;;;;4.40;3.10;;;;;;;21.87;63.05;101037.92;110294;1230;62958;-72
2022/08/03 07:04:49;;;;;;;4.60;3.10;;;;;;;22.00;63.03;101036.10;109412;1229;71466;-72
2022/08/03 07:07:18;;;;;;;4.90;2.90;;;;;;;22.13;62.45;101031.27;109102;1230;60341;-72
2022/08/03 07:09:47;;;;;;;6.50;3.50;;;;;;;22.25;62.03;101033.91;109060;1231;63305;-72
2022/08/03 07:12:29;;;;;;;5.20;3.00;;;;;;;22.39;61.73;101034.79;109054;1230;58010;-71
2022/08/03 07:14:58;;;;;;;5.20;3.40;;;;;;;22.50;61.63;101044.80;109410;1230;59558;-73
2022/08/03 07:17:32;;;;;;;4.60;3.20;;;;;;;22.60;61.54;101037.78;109350;1230;74519;-73
2022/08/03 07:20:01;;;;;;;7.70;3.30;;;;;;;22.76;61.53;101034.83;109232;1230;74054;-73
2022/08/03 07:22:28;;;;;;;6.00;3.30;;;;;;;22.89;60.53;101034.21;109447;1230;60338;-71
2022/08/03 07:24:56;;;;;;;4.20;3.20;;;;;;;22.87;59.79;101037.29;109210;1230;74265;-74
2022/08/03 07:27:25;;;;;;;6.90;3.50;;;;;;;22.72;60.59;101029.27;109373;1229;59623;-73
2022/08/03 07:29:54;;;;;;;4.50;3.30;;;;;;;22.81;60.55;101039.34;109322;1230;61264;-73
2022/08/03 07:32:23;;;;;;;4.50;3.10;;;;;;;22.90;60.54;101035.63;109446;1230;64078;-75
2022/08/03 07:34:50;;;;;;;5.80;3.40;;;;;;;23.09;60.40;101028.80;109145;1231;61698;-74
2022/08/03 07:37:25;;;;;;;4.60;3.60;;;;;;;23.30;59.82;101030.83;109407;1230;70944;-74
2022/08/03 07:39:52;;;;;;;6.00;3.70;;;;;;;23.45;59.24;101035.03;109404;1230;63719;-74
2022/08/03 07:42:19;;;;;;;5.60;4.00;;;;;;;23.50;58.34;101036.52;109534;1230;59587;-74
2022/08/03 07:44:46;;;;;;;4.40;3.30;;;;;;;23.69;57.74;101036.30;109092;1231;62221;-74
2022/08/03 07:47:19;;;;;;;5.60;3.40;;;;;;;23.84;57.31;101033.48;109323;1230;72233;-74
2022/08/03 07:49:49;;;;;;;4.60;3.00;;;;;;;23.92;56.11;101044.19;110986;1229;60827;-78
2022/08/03 07:55:07;;;;;;;4.00;2.30;;;;;;;24.02;53.41;101043.64;110809;1230;73178;-80
2022/08/03 07:57:34;;;;;;;6.50;2.60;;;;;;;24.00;52.85;101055.80;110762;1229;60885;-80
2022/08/03 08:00:11;;;;;;;3.30;2.50;;;;;;;24.06;52.99;101049.58;110892;1229;61612;-78
2022/08/03 08:02:41;;;;;;;3.00;2.30;;;;;;;24.08;53.00;101040.04;110724;1229;63303;-78
2022/08/03 08:05:11;;;;;;;3.10;2.40;;;;;;;24.17;52.72;101042.40;110454;1230;61645;-77
2022/08/03 08:07:40;;;;;;;3.60;2.40;;;;;;;24.02;52.65;101053.66;109225;1230;69498;-73
2022/08/03 08:10:09;;;;;;;4.70;2.40;;;;;;;23.96;52.56;101046.02;109315;1230;72458;-73
2022/08/03 08:12:38;;;;;;;2.90;2.30;;;;;;;23.84;52.73;101045.02;109134;1231;61186;-72
2022/08/03 08:15:08;;;;;;;4.30;2.70;;;;;;;23.83;52.39;101047.63;109227;1230;59549;-72
2022/08/03 08:17:56;;;;;;;5.50;2.40;;;;;;;23.97;52.33;101045.10;108997;1230;73354;-72
2022/08/03 08:20:36;;;;;;;4.80;2.50;;;;;;;24.10;51.95;101041.80;109193;1230;73170;-72
2022/08/03 08:23:07;;;;;;;5.30;2.50;;;;;;;24.28;51.92;101045.75;109284;1230;70784;-72
2022/08/03 08:25:55;;;;;;;5.20;2.70;;;;;;;24.42;51.68;101041.73;109837;1230;74926;-79
2022/08/03 08:28:22;;;;;;;7.90;2.90;;;;;;;24.48;51.80;101035.66;110876;1230;59188;-79
2022/08/03 08:31:01;;;;;;;5.10;3.20;;;;;;;24.64;51.86;101042.81;111257;1228;59953;-81
2022/08/03 08:33:29;;;;;;;4.30;2.70;;;;;;;24.72;51.59;101036.95;110887;1230;74257;-79
2022/08/03 08:36:18;;;;;;;5.10;3.00;;;;;;;24.76;51.49;101041.66;111046;1230;72406;-83
2022/08/03 08:38:47;;;;;;;4.70;2.70;;;;;;;24.91;51.27;101047.74;110144;1230;59688;-78
2022/08/03 08:41:15;;;;;;;4.70;2.70;;;;;;;24.90;50.48;101042.92;110928;1229;73099;-77
2022/08/03 08:43:42;;;;;;;4.70;2.80;;;;;;;25.10;50.16;101040.64;110687;1230;58765;-77
2022/08/03 08:46:13;;;;;;;3.10;2.30;;;;;;;25.24;49.66;101045.23;110790;1230;60501;-77
2022/08/03 08:48:53;;;;;;;3.80;2.60;;;;;;;25.45;48.46;101058.52;109545;1230;63490;-71
2022/08/03 08:51:26;;;;;;;5.30;2.80;;;;;;;25.45;48.22;101045.15;109359;1230;61528;-75
2022/08/03 08:54:17;;;;;;;5.90;2.10;;;;;;;25.65;47.08;101033.36;109444;1230;60172;-75
2022/08/03 08:56:44;;;;;;;3.30;2.10;;;;;;;25.64;46.84;101039.83;109367;1230;63201;-74
2022/08/03 08:59:13;;;;;;;2.90;2.30;;;;;;;25.71;46.87;101042.69;109433;1230;61069;-75
2022/08/03 09:01:40;;;;;;;3.60;2.20;;;;;;;25.72;47.19;101041.34;109279;1230;58190;-75
2022/08/03 09:04:08;;;;;;;7.70;2.60;;;;;;;25.80;46.71;101037.45;109536;1230;74300;-76
2022/08/03 09:06:36;;;;;;;5.70;2.10;;;;;;;25.70;46.06;101042.41;109824;1230;73379;-77
2022/08/03 09:09:06;;;;;;;5.30;2.10;;;;;;;25.53;46.63;101037.04;109970;1230;61329;-78
2022/08/03 09:11:34;;;;;;;3.40;2.30;;;;;;;25.49;47.10;101036.36;110304;1230;74012;-78
2022/08/03 09:14:23;;;;;;;5.30;2.30;;;;;;;25.52;46.86;101043.74;110349;1229;61068;-79
2022/08/03 09:17:11;;;;;;;4.70;1.90;;;;;;;25.47;46.95;101044.71;110598;1230;58984;-78
2022/08/03 09:20:05;;;;;;;2.80;2.10;;;;;;;25.50;47.17;101039.00;110554;1230;62948;-78
2022/08/03 09:22:32;;;;;;;3.30;2.20;;;;;;;25.66;46.96;101039.14;110928;1228;62620;-78
2022/08/03 09:25:04;;;;;;;4.10;1.90;;;;;;;25.69;46.45;101039.23;109769;1230;69605;-72
2022/08/03 09:27:52;;;;;;;4.30;2.40;;;;;;;25.68;46.56;101037.16;109208;1230;74522;-73
2022/08/03 09:30:20;;;;;;;6.40;2.40;;;;;;;25.60;47.07;101040.22;109409;1230;58894;-73
2022/08/03 09:33:05;;;;;;;4.40;2.50;;;;;;;25.75;47.07;101044.19;109633;1230;58026;-76
2022/08/03 09:35:41;;;;;;;6.50;2.40;;;;;;;25.89;46.35;101032.25;111349;1229;62842;-78
2022/08/03 09:38:26;;;;;;;4.10;2.30;;;;;;;25.97;46.37;101030.91;111141;1229;61560;-78
2022/08/03 09:40:56;;;;;;;4.80;2.60;;;;;;;26.00;46.72;101025.11;111395;1229;59104;-78
2022/08/03 09:43:44;;;;;;;3.90;2.70;;;;;;;26.19;46.39;101028.69;110897;1230;73206;-81
2022/08/03 09:46:11;;;;;;;3.80;2.60;;;;;;;26.22;46.25;101033.84;110958;1228;60017;-78
2022/08/03 09:48:43;;;;;;;5.70;2.80;;;;;;;26.29;45.99;101036.52;110834;1229;58239;-79
2022/08/03 09:51:12;;;;;;;3.80;2.20;;;;;;;26.33;45.86;101032.69;111163;1228;73696;-78
2022/08/03 09:54:02;;;;;;;4.00;2.20;;;;;;;26.38;45.66;101023.04;110995;1230;72040;-77
2022/08/03 09:56:46;;;;;;;4.60;2.50;;;;;;;26.31;46.02;101027.73;111038;1229;70338;-80
2022/08/03 09:59:32;;;;;;;3.90;2.50;;;;;;;26.39;46.35;101024.34;110967;1230;63194;-79
2022/08/03 10:02:01;;;;;;;4.10;2.40;;;;;;;26.70;45.69;101021.54;110776;1230;59457;-79
2022/08/03 10:04:28;;;;;;;4.00;2.40;;;;;;;26.78;45.16;101027.52;110765;1230;58205;-79
2022/08/03 10:07:08;;;;;;;3.10;2.70;;;;;;;26.67;45.00;101040.51;110973;1230;73576;-78
2022/08/03 10:09:37;;;;;;;4.70;2.60;;;;;;;26.61;44.96;101021.77;110930;1230;61873;-79
2022/08/03 10:12:12;;;;;;;4.20;2.70;;;;;;;26.77;44.82;101030.63;109797;1229;60260;-74
2022/08/03 10:14:44;;;;;;;7.50;2.60;;;;;;;26.75;44.56;101033.20;109434;1230;73707;-72
2022/08/03 10:17:12;;;;;;;7.80;2.80;;;;;;;26.63;44.92;101035.99;109576;1230;60429;-73
2022/08/03 10:19:42;;;;;;;4.20;2.90;;;;;;;26.29;45.42;101029.39;109389;1230;57896;-73
2022/08/03 10:22:22;;;;;;;5.20;3.00;;;;;;;26.28;45.20;101027.95;109328;1230;74438;-72
2022/08/03 10:25:01;;;;;;;3.00;2.40;;;;;;;26.66;45.15;101025.48;109387;1230;61874;-74
2022/08/03 10:27:37;;;;;;;4.50;2.50;;;;;;;27.04;44.31;101024.84;109336;1230;70459;-72
2022/08/03 10:30:10;;;;;;;3.10;2.30;;;;;;;27.09;43.97;101021.54;109240;1231;62738;-73
2022/08/03 10:33:20;;;;;;;4.20;2.70;;;;;;;27.13;43.48;101019.42;109303;1229;59829;-73
2022/08/03 10:36:08;;;;;;;4.60;2.70;;;;;;;27.37;43.41;101012.80;108966;1230;60922;-76
2022/08/03 10:38:51;;;;;;;4.30;2.80;;;;;;;27.65;43.03;101013.89;109464;1230;74844;-74
2022/08/03 10:41:30;;;;;;;5.40;2.80;;;;;;;27.91;43.11;101011.23;109102;1232;71852;-75
2022/08/03 10:44:16;;;;;;;2.70;2.30;;;;;;;27.67;42.83;101014.70;108995;1233;61472;-74
2022/08/03 10:46:47;;;;;;;3.80;2.30;;;;;;;27.75;42.06;101013.23;109284;1230;74904;-74
2022/08/03 10:49:20;;;;;;;3.70;2.50;;;;;;;27.83;42.02;101004.91;109216;1230;60892;-74
2022/08/03 10:52:04;;;;;;;6.50;2.60;;;;;;;28.31;41.76;101006.30;109380;1230;61621;-74
2022/08/03 10:57:53;;;;;;;4.90;2.60;;;;;;;28.80;39.84;100997.45;109114;1230;73704;-75
2022/08/03 11:00:29;;;;;;;3.70;2.70;;;;;;;28.62;40.26;101011.20;109362;1229;60232;-75
2022/08/03 11:03:13;;;;;;;6.60;2.60;;;;;;;28.65;40.41;101002.70;109028;1233;63234;-76
2022/08/03 11:05:52;;;;;;;3.70;2.40;;;;;;;28.34;40.56;100996.05;109240;1230;59528;-75
2022/08/03 11:08:29;;;;;;;3.20;2.60;;;;;;;28.16;41.14;101003.70;109260;1230;61253;-75
2022/08/03 11:11:15;;;;;;;3.80;2.60;;;;;;;28.48;41.37;100992.08;109308;1230;74823;-77
2022/08/03 11:14:16;;;;;;;5.30;2.90;;;;;;;28.70;40.79;100990.27;109762;1230;72607;-78
2022/08/03 11:17:04;;;;;;;4.20;2.70;;;;;;;28.81;40.54;100991.44;109092;1230;70781;-75
2022/08/03 11:19:47;;;;;;;6.40;3.00;;;;;;;28.53;40.84;100998.52;109103;1230;72619;-74
2022/08/03 11:22:44;;;;;;;4.30;3.10;;;;;;;28.01;42.05;100989.58;109215;1230;61722;-76
2022/08/03 11:25:14;;;;;;;4.50;3.10;;;;;;;27.93;42.29;100988.58;109180;1230;61696;-75
2022/08/03 11:28:28;;;;;;;6.10;3.00;;;;;;;28.01;42.34;100994.53;109205;1230;63773;-75
2022/08/03 11:31:23;;;;;;;4.80;3.10;;;;;;;28.10;42.29;100992.04;109004;1230;60656;-75
2022/08/03 11:34:14;;;;;;;4.50;2.50;;;;;;;28.01;41.85;100987.35;109107;1230;71612;-74
2022/08/03 11:37:20;;;;;;;4.50;2.70;;;;;;;28.13;41.63;100982.62;109149;1230;72033;-74
2022/08/03 11:39:53;;;;;;;5.60;2.90;;;;;;;28.40;41.51;100971.69;108997;1232;61447;-74
2022/08/03 11:42:23;;;;;;;5.80;2.90;;;;;;;28.38;41.79;100980.61;109258;1230;57913;-78
2022/08/03 11:44:53;;;;;;;5.20;3.10;;;;;;;28.18;41.88;100985.52;109136;1231;63814;-75
2022/08/03 11:47:22;;;;;;;4.40;3.10;;;;;;;27.85;42.38;100981.56;109221;1230;63353;-77
2022/08/03 11:49:54;;;;;;;5.60;2.80;;;;;;;27.71;42.86;100976.62;108985;1230;70106;-74
2022/08/03 11:52:22;;;;;;;4.20;2.80;;;;;;;28.19;42.13;100974.47;109170;1230;63971;-76
2022/08/03 11:54:55;;;;;;;3.00;2.50;;;;;;;28.99;40.56;100963.52;109254;1230;59932;-74
2022/08/03 11:57:32;;;;;;;3.80;2.70;;;;;;;29.45;39.67;100967.33;109137;1229;61415;-77
2022/08/03 12:00:28;;;;;;;4.80;2.70;;;;;;;29.62;38.42;100965.33;109016;1231;64120;-75